Time;durP1;ratioP1;P1;durP2;ratioP2;P2;SDS_P1;SDS_P2;PMS_P1;PMS_P2;Temp;Humidity;BMP_temperature;BMP_pressure;BME280_temperature;BME280_humidity;BME280_pressure;Samples;Min_cycle;Max_cycle;Signal;HPM_P1;HPM_P2
2022/04/04 00:00:52;;;;;;;6.15;4.50;;;;;;;;;;5038102;28;20249;-88
2022/04/04 00:03:18;;;;;;;5.47;4.88;;;;;;;;;;5034990;28;20197;-89
2022/04/04 00:05:44;;;;;;;4.53;4.05;;;;;;;;;;5044511;28;20189;-89
2022/04/04 00:08:10;;;;;;;5.22;3.90;;;;;;;;;;5037423;28;20183;-88
2022/04/04 00:10:36;;;;;;;6.40;4.40;;;;;;;;;;5023074;28;20196;-88
2022/04/04 00:13:02;;;;;;;5.70;4.05;;;;;;;;;;5043911;28;20200;-88
2022/04/04 00:15:28;;;;;;;4.57;3.70;;;;;;;;;;5042020;28;20192;-88
2022/04/04 00:17:55;;;;;;;11.30;4.45;;;;;;;;;;5040542;28;20190;-89
2022/04/04 00:20:22;;;;;;;3.80;3.47;;;;;;;;;;5027853;28;20202;-88
2022/04/04 00:22:48;;;;;;;4.65;4.22;;;;;;;;;;5038709;28;20248;-88
2022/04/04 00:25:14;;;;;;;5.55;4.40;;;;;;;;;;5040015;28;20170;-88
2022/04/04 00:27:40;;;;;;;4.30;3.70;;;;;;;;;;5026426;28;20237;-88
2022/04/04 00:30:07;;;;;;;4.35;3.95;;;;;;;;;;5037687;28;20277;-88
2022/04/04 00:32:36;;;;;;;6.30;4.10;;;;;;;;;;5037892;28;20339;-87
2022/04/04 00:35:02;;;;;;;4.68;3.78;;;;;;;;;;5043955;28;20177;-87
2022/04/04 00:37:28;;;;;;;4.97;4.47;;;;;;;;;;5028695;28;20191;-88
2022/04/04 00:39:54;;;;;;;3.75;3.40;;;;;;;;;;5041236;28;20208;-88
2022/04/04 00:42:20;;;;;;;4.90;4.40;;;;;;;;;;5040003;28;20238;-88
2022/04/04 00:44:46;;;;;;;4.82;3.92;;;;;;;;;;5035146;28;20197;-88
2022/04/04 00:47:12;;;;;;;7.13;4.72;;;;;;;;;;5043682;28;20245;-88
2022/04/04 00:49:38;;;;;;;6.07;4.50;;;;;;;;;;5043415;28;20178;-88
2022/04/04 00:52:05;;;;;;;4.93;4.40;;;;;;;;;;5030094;28;20178;-88
2022/04/04 00:54:32;;;;;;;5.75;4.25;;;;;;;;;;5029421;28;20262;-88
2022/04/04 00:56:58;;;;;;;5.15;3.97;;;;;;;;;;5037672;28;20186;-87
2022/04/04 00:59:24;;;;;;;4.78;4.22;;;;;;;;;;5035314;28;20182;-88
2022/04/04 01:01:50;;;;;;;5.00;4.60;;;;;;;;;;5042971;28;20206;-88
2022/04/04 01:04:16;;;;;;;5.60;4.00;;;;;;;;;;5042723;28;20169;-87
2022/04/04 01:06:46;;;;;;;6.20;4.20;;;;;;;;;;5043032;28;20530;-89
2022/04/04 01:09:14;;;;;;;4.20;3.30;;;;;;;;;;5035685;28;20202;-88
2022/04/04 01:12:00;;;;;;;6.72;4.85;;;;;;;;;;5034033;28;20332;-88
2022/04/04 01:14:26;;;;;;;4.90;3.90;;;;;;;;;;5029233;28;20186;-89
2022/04/04 01:16:52;;;;;;;4.80;4.07;;;;;;;;;;5047972;28;20208;-88
2022/04/04 01:19:17;;;;;;;6.03;4.20;;;;;;;;;;5041747;28;20186;-89
2022/04/04 01:21:43;;;;;;;4.80;4.40;;;;;;;;;;5030311;28;20210;-89
2022/04/04 01:24:18;;;;;;;7.18;4.68;;;;;;;;;;5036585;28;20217;-88
2022/04/04 01:26:51;;;;;;;5.55;4.25;;;;;;;;;;5040242;28;20953;-88
2022/04/04 01:29:18;;;;;;;5.32;4.28;;;;;;;;;;5039963;28;20183;-88
2022/04/04 01:31:44;;;;;;;6.15;4.50;;;;;;;;;;5043013;28;20185;-89
2022/04/04 01:34:10;;;;;;;6.78;4.07;;;;;;;;;;5046095;28;20181;-89
2022/04/04 01:36:36;;;;;;;4.93;3.55;;;;;;;;;;5043612;28;20204;-89
2022/04/04 01:39:03;;;;;;;5.00;4.13;;;;;;;;;;5034303;28;20615;-89
2022/04/04 01:41:29;;;;;;;5.45;4.10;;;;;;;;;;5030769;28;20592;-89
2022/04/04 01:43:55;;;;;;;4.50;4.10;;;;;;;;;;5041174;28;20210;-89
2022/04/04 01:46:24;;;;;;;4.90;4.40;;;;;;;;;;5041923;28;20200;-89
2022/04/04 01:48:51;;;;;;;7.85;4.40;;;;;;;;;;5043510;28;20182;-88
2022/04/04 01:51:17;;;;;;;5.40;3.97;;;;;;;;;;5039366;28;20178;-89
2022/04/04 01:53:43;;;;;;;5.68;3.90;;;;;;;;;;5039276;28;20199;-89
2022/04/04 01:56:10;;;;;;;7.25;4.55;;;;;;;;;;5035550;28;20190;-89
2022/04/04 01:58:36;;;;;;;4.32;3.60;;;;;;;;;;5046195;28;20265;-89
2022/04/04 02:01:04;;;;;;;5.97;4.82;;;;;;;;;;5031165;28;20245;-88
2022/04/04 02:03:33;;;;;;;4.03;3.70;;;;;;;;;;5032285;28;20182;-90
2022/04/04 02:06:00;;;;;;;4.07;3.67;;;;;;;;;;5048585;28;20177;-89
2022/04/04 02:08:27;;;;;;;4.20;3.55;;;;;;;;;;5026894;28;20189;-89
2022/04/04 02:10:53;;;;;;;4.70;4.00;;;;;;;;;;5026865;28;20205;-89
2022/04/04 02:13:19;;;;;;;4.57;3.08;;;;;;;;;;5040444;28;20178;-89
2022/04/04 02:15:45;;;;;;;4.13;3.72;;;;;;;;;;5043315;28;20171;-89
2022/04/04 02:18:11;;;;;;;5.65;4.55;;;;;;;;;;5046635;28;20181;-89
2022/04/04 02:20:37;;;;;;;6.55;4.45;;;;;;;;;;5043962;28;20181;-90
2022/04/04 02:23:03;;;;;;;7.55;5.15;;;;;;;;;;5042345;28;20213;-88
2022/04/04 02:25:30;;;;;;;4.55;4.05;;;;;;;;;;5044368;28;20343;-89
2022/04/04 02:27:55;;;;;;;4.60;3.67;;;;;;;;;;5040177;28;20250;-88
2022/04/04 02:30:21;;;;;;;4.63;4.10;;;;;;;;;;5037536;28;20187;-91
2022/04/04 02:32:48;;;;;;;6.60;4.75;;;;;;;;;;5027508;28;20210;-90
2022/04/04 02:35:13;;;;;;;6.00;4.40;;;;;;;;;;5033214;28;20192;-90
2022/04/04 02:37:39;;;;;;;5.28;4.45;;;;;;;;;;5041147;28;20182;-89
2022/04/04 02:40:06;;;;;;;6.93;4.95;;;;;;;;;;5040278;28;20186;-90
2022/04/04 02:42:32;;;;;;;4.82;4.35;;;;;;;;;;5046054;28;20241;-89
2022/04/04 02:44:58;;;;;;;5.70;4.88;;;;;;;;;;5030612;28;20194;-90
2022/04/04 02:47:25;;;;;;;4.70;4.30;;;;;;;;;;5048505;28;20245;-88
2022/04/04 02:49:51;;;;;;;5.75;4.93;;;;;;;;;;5026406;28;20182;-87
2022/04/04 02:52:17;;;;;;;6.03;4.57;;;;;;;;;;5040219;28;20224;-87
2022/04/04 02:54:43;;;;;;;6.10;3.97;;;;;;;;;;5033025;28;20185;-87
2022/04/04 02:57:09;;;;;;;6.10;4.50;;;;;;;;;;5039798;28;20192;-87
2022/04/04 02:59:35;;;;;;;6.30;4.53;;;;;;;;;;5038395;28;20183;-86
2022/04/04 03:02:01;;;;;;;7.25;5.63;;;;;;;;;;5026332;28;20221;-88
2022/04/04 03:04:27;;;;;;;10.77;4.82;;;;;;;;;;5041452;28;20248;-88
2022/04/04 03:06:53;;;;;;;7.72;5.05;;;;;;;;;;5030084;28;20179;-88
2022/04/04 03:09:19;;;;;;;7.85;5.18;;;;;;;;;;5034445;28;20203;-87
2022/04/04 03:11:45;;;;;;;5.40;4.90;;;;;;;;;;5038210;28;20669;-88
2022/04/04 03:14:11;;;;;;;5.45;4.93;;;;;;;;;;5041600;28;20228;-88
2022/04/04 03:16:38;;;;;;;8.75;5.30;;;;;;;;;;5039447;28;20186;-89
2022/04/04 03:19:04;;;;;;;5.93;4.35;;;;;;;;;;5039652;28;20170;-87
2022/04/04 03:21:30;;;;;;;10.50;4.97;;;;;;;;;;5031865;28;20206;-89
2022/04/04 03:23:56;;;;;;;5.72;5.10;;;;;;;;;;5032463;28;20193;-88
2022/04/04 03:26:23;;;;;;;6.53;5.20;;;;;;;;;;5044884;28;20249;-88
2022/04/04 03:28:49;;;;;;;7.60;5.22;;;;;;;;;;5026846;28;20181;-88
2022/04/04 03:31:15;;;;;;;9.52;6.13;;;;;;;;;;5038621;28;20703;-88
2022/04/04 03:33:43;;;;;;;7.78;6.20;;;;;;;;;;5027352;28;20201;-89
2022/04/04 03:36:10;;;;;;;7.95;6.75;;;;;;;;;;5043460;28;20187;-88
2022/04/04 03:38:36;;;;;;;6.65;6.00;;;;;;;;;;5036875;28;20182;-89
2022/04/04 03:41:02;;;;;;;7.75;6.03;;;;;;;;;;5038708;28;20242;-88
2022/04/04 03:43:28;;;;;;;7.25;5.45;;;;;;;;;;5040673;28;20190;-88
2022/04/04 03:45:54;;;;;;;6.60;5.85;;;;;;;;;;5052382;28;20173;-88
2022/04/04 03:48:20;;;;;;;6.88;6.28;;;;;;;;;;5034143;28;20194;-89
2022/04/04 03:50:47;;;;;;;7.78;5.57;;;;;;;;;;5025629;28;20189;-88
2022/04/04 03:53:13;;;;;;;8.77;6.57;;;;;;;;;;5028414;28;20204;-87
2022/04/04 03:55:39;;;;;;;7.63;5.40;;;;;;;;;;5030932;28;20187;-87
2022/04/04 03:58:09;;;;;;;7.57;5.75;;;;;;;;;;5040246;28;20174;-87
2022/04/04 04:00:35;;;;;;;8.10;6.20;;;;;;;;;;5044267;28;20217;-87
2022/04/04 04:03:01;;;;;;;9.80;6.97;;;;;;;;;;5032685;28;20205;-89
2022/04/04 04:05:27;;;;;;;5.85;5.35;;;;;;;;;;5049996;28;20178;-88
2022/04/04 04:07:53;;;;;;;11.20;5.45;;;;;;;;;;5040313;28;20175;-89
2022/04/04 04:10:20;;;;;;;8.13;6.53;;;;;;;;;;5042754;28;20223;-89
2022/04/04 04:12:46;;;;;;;7.72;5.97;;;;;;;;;;5045792;28;20182;-88
2022/04/04 04:15:14;;;;;;;6.95;5.93;;;;;;;;;;5042297;28;20572;-89
2022/04/04 04:17:40;;;;;;;8.15;5.72;;;;;;;;;;5045518;28;20192;-88
2022/04/04 04:20:19;;;;;;;9.27;6.47;;;;;;;;;;5041693;28;20193;-88
2022/04/04 04:22:46;;;;;;;7.45;6.68;;;;;;;;;;5028450;28;20198;-88
2022/04/04 04:25:14;;;;;;;7.35;5.57;;;;;;;;;;5035981;28;20224;-88
2022/04/04 04:27:40;;;;;;;9.80;6.47;;;;;;;;;;5046781;28;20169;-88
2022/04/04 04:30:07;;;;;;;7.80;5.63;;;;;;;;;;5041797;28;20269;-88
2022/04/04 04:32:33;;;;;;;6.55;5.90;;;;;;;;;;5042172;28;20186;-90
2022/04/04 04:34:59;;;;;;;8.38;6.13;;;;;;;;;;5030395;28;20751;-88
2022/04/04 04:37:25;;;;;;;11.20;6.25;;;;;;;;;;5044111;28;20216;-88
2022/04/04 04:39:51;;;;;;;6.47;5.45;;;;;;;;;;5041859;28;20213;-88
2022/04/04 04:42:17;;;;;;;6.88;5.47;;;;;;;;;;5033528;28;20214;-89
2022/04/04 04:44:44;;;;;;;6.32;5.57;;;;;;;;;;5034004;28;20213;-90
2022/04/04 04:47:10;;;;;;;9.77;6.97;;;;;;;;;;5042231;28;20193;-88
2022/04/04 04:49:36;;;;;;;5.90;5.25;;;;;;;;;;5043715;28;20181;-90
2022/04/04 04:52:03;;;;;;;7.75;5.35;;;;;;;;;;5041599;28;20181;-90
2022/04/04 04:54:30;;;;;;;7.93;5.45;;;;;;;;;;5043251;28;20661;-90
2022/04/04 04:56:56;;;;;;;6.53;5.13;;;;;;;;;;5038913;28;20186;-88
2022/04/04 04:59:22;;;;;;;5.70;4.97;;;;;;;;;;5030931;28;20278;-89
2022/04/04 05:01:48;;;;;;;5.53;5.00;;;;;;;;;;5042908;28;20198;-89
2022/04/04 05:07:18;;;;;;;6.07;4.82;;;;;;;;;;5027821;28;20176;-88
2022/04/04 05:09:44;;;;;;;5.25;4.75;;;;;;;;;;5031633;28;20719;-88
2022/04/04 05:12:11;;;;;;;7.07;5.22;;;;;;;;;;5038586;28;20190;-87
2022/04/04 05:14:39;;;;;;;7.00;6.07;;;;;;;;;;5041510;28;20178;-89
2022/04/04 05:17:05;;;;;;;5.88;5.20;;;;;;;;;;5036997;28;20277;-89
2022/04/04 05:19:32;;;;;;;9.30;5.00;;;;;;;;;;5027629;28;20181;-88
2022/04/04 05:21:58;;;;;;;6.43;5.38;;;;;;;;;;5042448;28;20213;-89
2022/04/04 05:24:24;;;;;;;5.63;5.13;;;;;;;;;;5040388;28;20186;-88
2022/04/04 05:26:50;;;;;;;6.25;4.55;;;;;;;;;;5037644;28;20213;-89
2022/04/04 05:29:17;;;;;;;6.90;5.03;;;;;;;;;;5038127;28;20249;-87
2022/04/04 05:31:45;;;;;;;6.18;5.05;;;;;;;;;;5042671;28;20273;-88
2022/04/04 05:34:11;;;;;;;6.68;4.78;;;;;;;;;;5035712;28;20723;-87
2022/04/04 05:36:37;;;;;;;6.10;5.43;;;;;;;;;;5045981;28;20267;-88
2022/04/04 05:39:04;;;;;;;6.68;5.85;;;;;;;;;;5039955;28;20554;-87
2022/04/04 05:41:30;;;;;;;6.38;5.40;;;;;;;;;;5036916;28;20237;-87
2022/04/04 05:43:56;;;;;;;6.20;5.60;;;;;;;;;;5037068;28;20182;-86
2022/04/04 05:46:22;;;;;;;6.95;5.25;;;;;;;;;;5064214;28;20185;-88
2022/04/04 05:48:48;;;;;;;8.30;5.10;;;;;;;;;;5044148;28;20178;-85
2022/04/04 05:51:16;;;;;;;7.65;5.68;;;;;;;;;;5034180;28;20190;-84
2022/04/04 05:53:42;;;;;;;7.20;5.25;;;;;;;;;;5032306;28;20178;-84
2022/04/04 05:56:08;;;;;;;6.65;5.80;;;;;;;;;;5038500;28;20183;-84
2022/04/04 05:58:36;;;;;;;7.13;6.40;;;;;;;;;;5040984;28;20232;-83
2022/04/04 06:01:02;;;;;;;11.63;5.50;;;;;;;;;;5039607;28;20237;-83
2022/04/04 06:03:28;;;;;;;11.95;7.13;;;;;;;;;;5038818;28;20639;-83
2022/04/04 06:05:54;;;;;;;8.50;5.50;;;;;;;;;;5069897;28;20174;-84
2022/04/04 06:08:21;;;;;;;7.50;6.25;;;;;;;;;;5029059;28;20193;-85
2022/04/04 06:10:47;;;;;;;8.23;5.20;;;;;;;;;;5041611;28;20257;-86
2022/04/04 06:13:15;;;;;;;6.13;5.53;;;;;;;;;;5030335;28;20680;-85
2022/04/04 06:15:42;;;;;;;6.28;5.53;;;;;;;;;;5044649;28;20173;-84
2022/04/04 06:18:08;;;;;;;8.27;6.45;;;;;;;;;;5069064;28;20190;-87
2022/04/04 06:20:34;;;;;;;8.43;5.80;;;;;;;;;;5034957;28;20197;-86
2022/04/04 06:23:00;;;;;;;9.30;6.93;;;;;;;;;;5039263;28;20297;-85
2022/04/04 06:25:26;;;;;;;9.35;6.10;;;;;;;;;;5037024;28;20190;-85
2022/04/04 06:27:53;;;;;;;8.50;6.22;;;;;;;;;;5030324;28;20189;-85
2022/04/04 06:30:20;;;;;;;7.53;6.03;;;;;;;;;;5031047;28;20186;-85
2022/04/04 06:32:46;;;;;;;7.53;5.70;;;;;;;;;;5031689;28;20186;-86
2022/04/04 06:35:13;;;;;;;9.52;5.45;;;;;;;;;;5036584;28;20197;-86
2022/04/04 06:37:39;;;;;;;9.05;6.10;;;;;;;;;;5026770;28;20188;-85
2022/04/04 06:40:06;;;;;;;9.05;5.97;;;;;;;;;;5028913;28;20187;-85
2022/04/04 06:42:39;;;;;;;8.30;5.88;;;;;;;;;;5030515;28;20237;-85
2022/04/04 06:45:06;;;;;;;8.68;6.80;;;;;;;;;;5035017;28;20269;-85
2022/04/04 06:47:33;;;;;;;6.40;5.80;;;;;;;;;;5026581;28;20186;-85
2022/04/04 06:49:59;;;;;;;8.85;6.05;;;;;;;;;;5030392;28;20736;-86
2022/04/04 06:52:26;;;;;;;10.77;5.68;;;;;;;;;;5026142;28;20186;-85
2022/04/04 06:54:53;;;;;;;7.70;5.60;;;;;;;;;;5041417;28;20596;-84
2022/04/04 06:57:19;;;;;;;9.00;5.63;;;;;;;;;;5035141;28;20280;-85
2022/04/04 06:59:45;;;;;;;8.23;6.00;;;;;;;;;;5047082;28;20189;-86
2022/04/04 07:02:11;;;;;;;6.65;5.63;;;;;;;;;;5039881;28;20259;-86
2022/04/04 07:04:37;;;;;;;7.72;5.50;;;;;;;;;;5038988;28;20649;-86
2022/04/04 07:07:04;;;;;;;13.63;6.95;;;;;;;;;;5040617;28;20174;-85
2022/04/04 07:09:30;;;;;;;6.05;5.15;;;;;;;;;;5028160;28;20250;-84
2022/04/04 07:11:57;;;;;;;9.43;5.00;;;;;;;;;;5030377;28;20190;-85
2022/04/04 07:14:24;;;;;;;4.78;4.38;;;;;;;;;;5030361;28;20189;-85
2022/04/04 07:16:52;;;;;;;4.43;4.03;;;;;;;;;;5046684;28;20178;-85
2022/04/04 07:19:19;;;;;;;7.15;4.50;;;;;;;;;;5032961;28;20170;-87
2022/04/04 07:21:45;;;;;;;4.80;3.90;;;;;;;;;;5036505;28;20256;-89
2022/04/04 07:24:11;;;;;;;5.28;3.85;;;;;;;;;;5033110;28;20190;-87
2022/04/04 07:26:37;;;;;;;5.38;4.20;;;;;;;;;;5028723;28;20208;-84
2022/04/04 07:29:03;;;;;;;6.50;4.47;;;;;;;;;;5047494;28;20189;-85
2022/04/04 07:31:29;;;;;;;8.55;4.20;;;;;;;;;;5025066;28;20202;-86
2022/04/04 07:33:55;;;;;;;4.40;3.22;;;;;;;;;;5023489;28;20178;-87
2022/04/04 07:36:22;;;;;;;3.30;3.00;;;;;;;;;;5040939;28;20216;-86
2022/04/04 07:38:48;;;;;;;3.55;3.08;;;;;;;;;;5036947;28;20278;-87
2022/04/04 07:41:14;;;;;;;6.82;3.42;;;;;;;;;;5029767;28;20217;-85
2022/04/04 07:44:12;;;;;;;3.47;2.90;;;;;;;;;;5052080;28;20240;-88
2022/04/04 07:46:38;;;;;;;3.10;2.80;;;;;;;;;;5020594;28;20194;-88
2022/04/04 07:49:04;;;;;;;3.28;2.75;;;;;;;;;;5020538;28;20205;-85
2022/04/04 07:51:30;;;;;;;3.70;2.90;;;;;;;;;;5019903;28;20281;-86
2022/04/04 07:53:57;;;;;;;3.38;2.58;;;;;;;;;;4993890;28;20264;-87
2022/04/04 07:56:23;;;;;;;4.22;3.22;;;;;;;;;;5017420;28;20194;-89
2022/04/04 07:58:49;;;;;;;3.47;2.55;;;;;;;;;;5020233;28;20213;-87
2022/04/04 08:01:15;;;;;;;5.97;2.95;;;;;;;;;;5019215;28;20666;-87
2022/04/04 08:03:41;;;;;;;2.45;2.13;;;;;;;;;;5018735;28;20225;-88
2022/04/04 08:06:07;;;;;;;3.22;2.92;;;;;;;;;;5036334;28;20188;-89
2022/04/04 08:08:33;;;;;;;5.22;3.50;;;;;;;;;;5018298;28;20194;-92
2022/04/04 08:11:00;;;;;;;2.50;2.17;;;;;;;;;;5002267;28;20309;-87
2022/04/04 08:13:26;;;;;;;3.08;1.75;;;;;;;;;;5036181;28;20171;-88
2022/04/04 08:15:53;;;;;;;2.78;2.30;;;;;;;;;;4990054;28;20187;-87
2022/04/04 08:18:19;;;;;;;2.53;2.17;;;;;;;;;;5021753;28;20215;-87
2022/04/04 08:20:45;;;;;;;4.68;3.03;;;;;;;;;;5028991;28;20182;-89
2022/04/04 08:23:11;;;;;;;4.90;2.10;;;;;;;;;;5032299;28;20264;-88
2022/04/04 08:25:37;;;;;;;2.70;1.83;;;;;;;;;;5023952;28;20189;-89
2022/04/04 08:28:03;;;;;;;3.35;2.17;;;;;;;;;;5043656;28;20193;-86
2022/04/04 08:30:29;;;;;;;1.92;1.70;;;;;;;;;;5034266;28;20192;-90
2022/04/04 08:32:55;;;;;;;3.42;1.90;;;;;;;;;;5046986;28;20211;-89
2022/04/04 08:35:21;;;;;;;1.60;1.50;;;;;;;;;;5043685;28;20213;-87
2022/04/04 08:37:47;;;;;;;2.72;1.40;;;;;;;;;;5041494;28;20185;-87
2022/04/04 08:40:14;;;;;;;1.75;1.60;;;;;;;;;;5040923;28;20204;-89
2022/04/04 08:42:41;;;;;;;2.20;1.95;;;;;;;;;;5041078;28;20221;-92
2022/04/04 08:45:08;;;;;;;3.13;2.88;;;;;;;;;;5037140;28;20182;-87
2022/04/04 08:47:34;;;;;;;2.67;1.75;;;;;;;;;;5034254;28;20178;-87
2022/04/04 08:50:00;;;;;;;1.60;1.50;;;;;;;;;;5041036;28;20190;-91
2022/04/04 08:52:27;;;;;;;1.63;1.52;;;;;;;;;;5036297;28;20190;-91
2022/04/04 08:54:53;;;;;;;1.65;1.38;;;;;;;;;;5039927;28;20206;-86
2022/04/04 08:57:19;;;;;;;1.55;1.40;;;;;;;;;;5044647;28;20189;-88
2022/04/04 08:59:45;;;;;;;4.65;1.38;;;;;;;;;;5044595;28;20186;-88
2022/04/04 09:02:15;;;;;;;1.60;1.50;;;;;;;;;;5040269;28;20209;-86
2022/04/04 09:04:41;;;;;;;1.38;1.27;;;;;;;;;;5055875;28;20178;-89
2022/04/04 09:07:09;;;;;;;1.92;1.10;;;;;;;;;;5042155;28;20185;-84
2022/04/04 09:09:42;;;;;;;1.42;1.10;;;;;;;;;;5040596;28;20182;-88
2022/04/04 09:12:08;;;;;;;2.13;1.20;;;;;;;;;;5039140;28;20903;-88
2022/04/04 09:14:36;;;;;;;1.80;1.48;;;;;;;;;;5045303;28;20186;-89
2022/04/04 09:17:02;;;;;;;1.40;1.30;;;;;;;;;;5042013;28;20186;-88
2022/04/04 09:19:29;;;;;;;1.50;1.40;;;;;;;;;;5047101;28;20226;-87
2022/04/04 09:21:56;;;;;;;1.30;1.20;;;;;;;;;;5039628;28;20206;-86
2022/04/04 09:24:22;;;;;;;1.63;1.20;;;;;;;;;;5038552;28;20181;-86
2022/04/04 09:26:49;;;;;;;1.65;0.85;;;;;;;;;;5039213;28;20186;-85
2022/04/04 09:29:18;;;;;;;1.40;1.20;;;;;;;;;;5037428;28;20201;-86
2022/04/04 09:32:05;;;;;;;2.67;1.20;;;;;;;;;;5041292;28;20244;-84
2022/04/04 09:34:52;;;;;;;1.20;1.10;;;;;;;;;;5041147;28;20197;-84
2022/04/04 09:37:19;;;;;;;1.55;1.05;;;;;;;;;;5036866;28;20197;-85
2022/04/04 09:39:45;;;;;;;1.65;1.00;;;;;;;;;;5039975;28;20191;-85
2022/04/04 09:42:18;;;;;;;1.88;1.27;;;;;;;;;;5022190;28;20685;-82
2022/04/04 09:44:56;;;;;;;1.02;0.95;;;;;;;;;;5022603;28;20179;-82
2022/04/04 09:47:23;;;;;;;1.13;0.90;;;;;;;;;;5005690;28;20182;-83
2022/04/04 09:49:50;;;;;;;3.63;1.00;;;;;;;;;;5022638;28;20254;-83
2022/04/04 09:52:16;;;;;;;1.30;1.20;;;;;;;;;;5037513;28;20201;-84
2022/04/04 09:54:43;;;;;;;1.65;1.17;;;;;;;;;;5002375;28;20186;-83
2022/04/04 09:57:16;;;;;;;1.55;1.02;;;;;;;;;;5022320;28;20209;-90
2022/04/04 09:59:43;;;;;;;0.90;0.85;;;;;;;;;;4997743;28;20250;-85
2022/04/04 10:02:13;;;;;;;1.27;1.15;;;;;;;;;;4993765;28;20248;-82
2022/04/04 10:04:39;;;;;;;1.95;1.10;;;;;;;;;;5022146;28;20217;-81
2022/04/04 10:07:07;;;;;;;2.55;1.17;;;;;;;;;;5001874;28;20186;-83
2022/04/04 10:10:02;;;;;;;2.63;1.35;;;;;;;;;;5002500;28;20182;-85
2022/04/04 10:12:34;;;;;;;2.35;1.10;;;;;;;;;;5030686;28;20709;-86
2022/04/04 10:15:00;;;;;;;1.50;1.40;;;;;;;;;;5030769;28;20225;-88
2022/04/04 10:17:26;;;;;;;1.27;1.17;;;;;;;;;;5041049;28;20181;-92
2022/04/04 10:19:53;;;;;;;1.73;1.40;;;;;;;;;;5030939;28;20183;-90
2022/04/04 10:22:19;;;;;;;3.88;1.30;;;;;;;;;;5042252;28;20279;-91
2022/04/04 10:24:46;;;;;;;1.20;0.93;;;;;;;;;;5028727;28;20633;-85
2022/04/04 10:27:13;;;;;;;1.75;1.45;;;;;;;;;;5034953;28;20205;-92
2022/04/04 10:29:41;;;;;;;2.15;1.50;;;;;;;;;;5035757;28;20189;-84
2022/04/04 10:32:21;;;;;;;3.00;1.60;;;;;;;;;;5041824;28;20659;-89
2022/04/04 10:34:47;;;;;;;0.80;0.80;;;;;;;;;;5030203;28;20217;-87
2022/04/04 10:37:14;;;;;;;1.30;1.10;;;;;;;;;;5043806;28;20177;-86
2022/04/04 10:39:45;;;;;;;1.42;1.10;;;;;;;;;;5046124;28;20647;-89
2022/04/04 10:42:31;;;;;;;1.58;1.33;;;;;;;;;;5037888;28;20676;-91
2022/04/04 10:44:58;;;;;;;1.70;1.60;;;;;;;;;;5038692;28;20185;-91
2022/04/04 10:47:26;;;;;;;2.40;1.35;;;;;;;;;;5039566;28;20188;-91
2022/04/04 10:49:52;;;;;;;3.92;2.10;;;;;;;;;;5028417;28;20185;-86
2022/04/04 10:52:21;;;;;;;1.65;1.50;;;;;;;;;;5041643;28;20189;-85
2022/04/04 10:54:49;;;;;;;1.67;1.27;;;;;;;;;;5040037;28;20178;-90
2022/04/04 10:57:22;;;;;;;1.25;1.15;;;;;;;;;;5051308;28;20181;-91
2022/04/04 10:59:56;;;;;;;2.13;1.60;;;;;;;;;;5047018;28;20213;-88
2022/04/04 11:02:23;;;;;;;3.97;1.60;;;;;;;;;;5038558;28;20208;-87
2022/04/04 11:07:41;;;;;;;3.28;1.98;;;;;;;;;;5043482;28;20217;-88
2022/04/04 11:10:08;;;;;;;4.70;2.13;;;;;;;;;;5039869;28;20173;-90
2022/04/04 11:12:54;;;;;;;1.60;1.50;;;;;;;;;;5047991;28;20186;-90
2022/04/04 11:15:41;;;;;;;3.85;1.90;;;;;;;;;;5039168;28;20220;-89
2022/04/04 11:18:07;;;;;;;5.93;1.90;;;;;;;;;;5033325;28;20186;-87
2022/04/04 11:20:33;;;;;;;4.63;2.05;;;;;;;;;;5029062;28;20283;-92
2022/04/04 11:23:01;;;;;;;2.08;1.52;;;;;;;;;;5044092;28;20201;-87
2022/04/04 11:25:33;;;;;;;1.73;1.60;;;;;;;;;;5040957;28;20260;-90
2022/04/04 11:28:00;;;;;;;1.77;1.65;;;;;;;;;;5055502;28;20181;-89
2022/04/04 11:30:27;;;;;;;2.45;1.58;;;;;;;;;;5036282;28;20181;-89
2022/04/04 11:32:54;;;;;;;2.35;2.15;;;;;;;;;;5041376;28;20186;-85
2022/04/04 11:35:32;;;;;;;1.90;1.65;;;;;;;;;;5042472;28;20188;-90
2022/04/04 11:37:58;;;;;;;1.60;1.48;;;;;;;;;;5041033;28;20185;-86
2022/04/04 11:40:29;;;;;;;2.30;1.73;;;;;;;;;;5039759;28;20269;-89
2022/04/04 11:42:56;;;;;;;2.00;1.80;;;;;;;;;;5027852;28;20236;-88
2022/04/04 11:45:23;;;;;;;3.10;2.35;;;;;;;;;;5032398;28;20190;-92
2022/04/04 11:47:55;;;;;;;2.40;2.05;;;;;;;;;;5031621;28;20177;-90
2022/04/04 11:50:24;;;;;;;3.55;2.50;;;;;;;;;;5047010;28;20202;-84
2022/04/04 11:52:58;;;;;;;2.83;1.85;;;;;;;;;;5025319;28;20689;-93
2022/04/04 11:55:33;;;;;;;2.13;1.95;;;;;;;;;;5039600;28;20212;-87
2022/04/04 11:58:01;;;;;;;2.20;2.00;;;;;;;;;;5025249;28;20228;-89
2022/04/04 12:00:30;;;;;;;2.40;2.10;;;;;;;;;;5027528;28;20261;-92
2022/04/04 12:02:57;;;;;;;3.42;2.00;;;;;;;;;;5034642;28;20209;-91
2022/04/04 12:05:23;;;;;;;2.75;1.90;;;;;;;;;;5033956;28;20204;-91
2022/04/04 12:07:50;;;;;;;2.70;2.50;;;;;;;;;;5040477;28;20185;-89
2022/04/04 12:10:31;;;;;;;2.70;2.40;;;;;;;;;;5037682;28;20180;-92
2022/04/04 12:13:05;;;;;;;2.50;2.00;;;;;;;;;;5052296;28;20620;-89
2022/04/04 12:15:32;;;;;;;4.22;2.35;;;;;;;;;;5025289;28;20269;-92
2022/04/04 12:17:59;;;;;;;2.60;1.90;;;;;;;;;;5030384;28;20186;-93
2022/04/04 12:20:25;;;;;;;2.25;1.60;;;;;;;;;;5027948;28;20225;-89
2022/04/04 12:25:36;;;;;;;3.63;2.20;;;;;;;;;;5025140;28;20205;-91
2022/04/04 12:28:03;;;;;;;3.08;2.15;;;;;;;;;;5043741;28;20174;-92
2022/04/04 12:30:31;;;;;;;7.53;2.60;;;;;;;;;;5031449;28;20229;-92
2022/04/04 12:33:07;;;;;;;3.28;2.45;;;;;;;;;;5033889;28;20190;-88
2022/04/04 12:35:34;;;;;;;2.83;2.25;;;;;;;;;;5038501;28;20174;-88
2022/04/04 12:38:00;;;;;;;1.95;1.65;;;;;;;;;;5057437;28;20193;-86
2022/04/04 12:40:26;;;;;;;3.05;2.75;;;;;;;;;;5028030;28;20183;-86
2022/04/04 12:43:05;;;;;;;3.22;2.55;;;;;;;;;;5027486;28;20285;-88
2022/04/04 12:45:31;;;;;;;2.80;2.05;;;;;;;;;;5044487;28;20523;-89
2022/04/04 12:48:07;;;;;;;2.35;1.80;;;;;;;;;;5038073;28;20691;-86
2022/04/04 12:50:41;;;;;;;1.85;1.70;;;;;;;;;;5036306;28;20209;-87
2022/04/04 12:53:08;;;;;;;2.35;2.15;;;;;;;;;;5049385;28;20185;-87
2022/04/04 12:55:35;;;;;;;1.90;1.73;;;;;;;;;;5042998;28;20186;-90
2022/04/04 12:58:19;;;;;;;4.55;2.28;;;;;;;;;;5032004;28;20167;-88
2022/04/04 13:00:45;;;;;;;4.10;2.90;;;;;;;;;;5040132;28;20188;-88
2022/04/04 13:03:22;;;;;;;2.70;2.30;;;;;;;;;;5035882;28;20210;-89
2022/04/04 13:05:52;;;;;;;2.35;1.85;;;;;;;;;;5037286;28;20182;-91
2022/04/04 13:08:22;;;;;;;3.45;2.55;;;;;;;;;;5031997;28;20309;-86
2022/04/04 13:11:08;;;;;;;2.70;1.92;;;;;;;;;;5042435;28;20190;-89
2022/04/04 13:13:34;;;;;;;2.85;2.00;;;;;;;;;;5035562;28;20201;-92
2022/04/04 13:16:01;;;;;;;3.03;2.17;;;;;;;;;;5056187;28;20173;-89
2022/04/04 13:18:27;;;;;;;2.92;2.60;;;;;;;;;;5045416;28;20213;-90
2022/04/04 13:20:53;;;;;;;4.47;2.67;;;;;;;;;;5047002;28;20185;-89
2022/04/04 13:23:21;;;;;;;2.22;1.98;;;;;;;;;;5041757;28;20244;-89
2022/04/04 13:25:47;;;;;;;2.22;1.98;;;;;;;;;;5027360;28;20187;-85
2022/04/04 13:28:14;;;;;;;4.13;2.35;;;;;;;;;;5041718;28;20220;-85
2022/04/04 13:30:40;;;;;;;4.53;3.20;;;;;;;;;;5043495;28;20173;-85
2022/04/04 13:33:10;;;;;;;3.05;2.67;;;;;;;;;;5048165;28;20182;-88
2022/04/04 13:35:36;;;;;;;3.10;2.60;;;;;;;;;;5039641;28;20181;-86
2022/04/04 13:38:03;;;;;;;4.70;2.25;;;;;;;;;;5050270;28;20186;-87
2022/04/04 13:40:30;;;;;;;3.40;2.88;;;;;;;;;;5040894;28;20631;-90
2022/04/04 13:42:56;;;;;;;4.28;2.40;;;;;;;;;;5024508;28;20229;-89
2022/04/04 13:45:23;;;;;;;3.10;2.55;;;;;;;;;;5032199;28;20190;-90
2022/04/04 13:47:49;;;;;;;3.03;2.63;;;;;;;;;;5032081;28;20178;-94
2022/04/04 13:50:15;;;;;;;2.55;2.35;;;;;;;;;;5029115;28;20193;-89
2022/04/04 13:52:43;;;;;;;5.63;2.63;;;;;;;;;;5041973;28;20194;-88
2022/04/04 13:55:09;;;;;;;3.85;2.90;;;;;;;;;;5028147;28;20265;-86
2022/04/04 13:57:36;;;;;;;6.00;2.78;;;;;;;;;;5050685;28;20177;-88
2022/04/04 14:00:02;;;;;;;3.25;2.95;;;;;;;;;;5040769;28;20265;-88
2022/04/04 14:02:28;;;;;;;3.00;2.70;;;;;;;;;;5040476;28;20289;-91
2022/04/04 14:04:54;;;;;;;2.83;2.50;;;;;;;;;;5043018;28;20189;-87
2022/04/04 14:07:21;;;;;;;5.50;3.05;;;;;;;;;;5040530;28;20451;-86
2022/04/04 14:09:47;;;;;;;3.13;2.80;;;;;;;;;;5033241;28;20484;-83
2022/04/04 14:12:13;;;;;;;3.13;2.63;;;;;;;;;;5032668;28;20186;-91
2022/04/04 14:14:39;;;;;;;3.03;2.75;;;;;;;;;;5031425;28;20192;-88
2022/04/04 14:17:06;;;;;;;3.03;2.78;;;;;;;;;;5045334;28;20213;-88
2022/04/04 14:19:32;;;;;;;14.25;2.92;;;;;;;;;;5041186;28;20198;-87
2022/04/04 14:21:58;;;;;;;2.80;2.30;;;;;;;;;;5038431;28;20194;-91
2022/04/04 14:24:24;;;;;;;6.60;3.28;;;;;;;;;;5046698;28;20186;-89
2022/04/04 14:26:52;;;;;;;3.92;2.70;;;;;;;;;;5043530;28;20193;-85
2022/04/04 14:29:18;;;;;;;4.32;3.17;;;;;;;;;;5047206;28;20178;-89
2022/04/04 14:31:44;;;;;;;2.63;2.42;;;;;;;;;;5034584;28;20194;-87
2022/04/04 14:34:11;;;;;;;3.13;2.83;;;;;;;;;;5027570;28;20261;-88
2022/04/04 14:36:38;;;;;;;4.85;2.70;;;;;;;;;;5050525;28;20177;-85
2022/04/04 14:39:07;;;;;;;2.92;2.63;;;;;;;;;;5034988;28;20346;-82
2022/04/04 14:41:33;;;;;;;3.80;2.20;;;;;;;;;;5032019;28;20232;-87
2022/04/04 14:43:59;;;;;;;3.25;2.70;;;;;;;;;;5038930;28;20256;-85
2022/04/04 14:46:25;;;;;;;4.00;2.90;;;;;;;;;;5038737;28;20205;-86
2022/04/04 14:48:52;;;;;;;4.55;2.15;;;;;;;;;;5050115;28;20643;-88
2022/04/04 14:51:19;;;;;;;4.53;2.63;;;;;;;;;;5041651;28;20189;-87
2022/04/04 14:53:45;;;;;;;4.20;2.70;;;;;;;;;;5037441;28;20575;-87